Time;durP1;ratioP1;P1;durP2;ratioP2;P2;SDS_P1;SDS_P2;PMS_P1;PMS_P2;Temp;Humidity;BMP_temperature;BMP_pressure;BME280_temperature;BME280_humidity;BME280_pressure;Samples;Min_cycle;Max_cycle;Signal;HPM_P1;HPM_P2
2023/04/07 00:00:04;;;;;;;9.98;5.53;;;;;;;6.52;67.27;100841.94;5157517;28;20096;-72
2023/04/07 00:02:35;;;;;;;8.90;5.38;;;;;;;6.47;67.33;100841.16;5156589;28;20105;-72
2023/04/07 00:05:06;;;;;;;9.75;5.53;;;;;;;6.49;67.07;100832.47;5158945;28;20026;-72
2023/04/07 00:07:36;;;;;;;8.35;4.95;;;;;;;6.43;66.94;100844.69;5159325;28;20032;-72
2023/04/07 00:10:07;;;;;;;13.70;5.88;;;;;;;6.38;67.91;100843.88;5139279;28;20625;-73
2023/04/07 00:12:37;;;;;;;10.98;5.95;;;;;;;6.48;67.28;100840.25;5158086;28;20034;-71
2023/04/07 00:15:08;;;;;;;10.88;5.53;;;;;;;6.31;67.16;100834.47;5157438;28;20034;-72
2023/04/07 00:17:38;;;;;;;9.90;5.72;;;;;;;6.42;66.45;100830.81;5141357;28;20026;-72
2023/04/07 00:20:09;;;;;;;11.77;5.45;;;;;;;6.38;66.59;100834.34;5138781;28;20066;-72
2023/04/07 00:22:39;;;;;;;11.07;5.78;;;;;;;6.33;66.87;100832.69;5157595;28;20037;-72
2023/04/07 00:25:10;;;;;;;11.63;5.47;;;;;;;6.38;66.29;100838.66;5158328;28;20022;-72
2023/04/07 00:27:40;;;;;;;12.43;5.88;;;;;;;6.32;67.26;100825.78;5157935;28;20045;-71
2023/04/07 00:30:11;;;;;;;10.40;5.90;;;;;;;6.37;66.97;100826.56;5155137;28;20083;-70
2023/04/07 00:32:41;;;;;;;12.98;6.05;;;;;;;6.31;67.13;100829.28;5159122;28;20077;-72
2023/04/07 00:35:11;;;;;;;11.93;5.93;;;;;;;6.27;66.82;100822.41;5158306;28;20048;-72
2023/04/07 00:37:42;;;;;;;10.00;5.72;;;;;;;6.32;66.02;100821.47;5161028;28;20457;-71
2023/04/07 00:40:12;;;;;;;10.80;5.47;;;;;;;6.28;66.70;100824.13;5156769;28;20662;-72
2023/04/07 00:42:42;;;;;;;12.57;5.78;;;;;;;6.31;66.63;100832.75;5156002;28;20049;-71
2023/04/07 00:45:13;;;;;;;10.30;5.55;;;;;;;6.26;65.77;100821.53;5136221;28;20030;-73
2023/04/07 00:47:43;;;;;;;10.38;5.57;;;;;;;6.32;65.26;100826.66;5155385;28;20026;-71
2023/04/07 00:50:19;;;;;;;10.07;5.78;;;;;;;6.34;65.53;100813.66;5158266;28;20089;-72
2023/04/07 00:52:50;;;;;;;12.25;5.60;;;;;;;6.36;65.81;100814.47;5155853;28;20061;-73
2023/04/07 00:55:20;;;;;;;10.25;5.38;;;;;;;6.39;64.93;100809.28;5160958;28;20033;-72
2023/04/07 00:57:50;;;;;;;9.23;4.97;;;;;;;6.35;65.32;100805.84;5159025;28;20037;-73
2023/04/07 01:00:21;;;;;;;10.05;5.20;;;;;;;6.28;65.87;100804.22;5135670;28;20026;-72
2023/04/07 01:03:00;;;;;;;11.25;5.63;;;;;;;6.25;66.24;100806.00;5164728;28;20033;-71
2023/04/07 01:05:54;;;;;;;12.18;5.90;;;;;;;6.16;66.14;100808.72;5161957;28;20038;-73
2023/04/07 01:08:50;;;;;;;9.93;5.35;;;;;;;6.24;66.05;100801.72;5161327;28;20033;-73
2023/04/07 01:11:27;;;;;;;9.13;5.47;;;;;;;6.27;66.46;100801.66;5143021;28;20153;-73
2023/04/07 01:13:59;;;;;;;8.82;5.60;;;;;;;6.10;66.58;100790.66;5159962;28;20105;-72
2023/04/07 01:16:50;;;;;;;10.25;5.60;;;;;;;6.09;67.08;100799.31;5162113;28;20082;-72
2023/04/07 01:19:36;;;;;;;10.80;5.32;;;;;;;6.18;65.49;100796.59;5145970;28;20088;-73
2023/04/07 01:22:11;;;;;;;;;;;;;;;6.24;65.66;100796.50;5161768;28;20064;-74
2023/04/07 01:25:02;;;;;;;9.38;5.18;;;;;;;6.19;65.59;100793.09;5144123;28;20360;-73
2023/04/07 01:27:58;;;;;;;9.80;5.45;;;;;;;6.16;65.38;100793.16;5146756;28;20566;-72
2023/04/07 01:30:32;;;;;;;10.75;5.50;;;;;;;6.12;66.35;100794.09;5162660;28;20026;-72
2023/04/07 01:33:05;;;;;;;10.43;5.55;;;;;;;6.03;66.32;100794.19;5145087;28;20420;-72
2023/04/07 01:35:36;;;;;;;12.38;5.53;;;;;;;6.02;66.28;100787.31;5162163;28;20030;-73
2023/04/07 01:38:08;;;;;;;9.45;5.15;;;;;;;6.06;65.92;100791.59;5144109;28;20022;-72
2023/04/07 01:40:40;;;;;;;10.63;5.70;;;;;;;6.07;66.62;100799.34;5143124;28;20026;-72
2023/04/07 01:43:11;;;;;;;8.73;4.82;;;;;;;5.99;66.13;100797.72;5141659;28;20025;-71
2023/04/07 01:45:42;;;;;;;10.13;5.13;;;;;;;5.94;66.66;100796.94;5160581;28;20496;-72
2023/04/07 01:48:14;;;;;;;10.38;5.22;;;;;;;6.08;66.54;100795.00;5160355;28;20034;-72
2023/04/07 01:50:45;;;;;;;12.35;5.63;;;;;;;5.93;67.36;100795.22;5146059;28;20026;-72
2023/04/07 01:53:16;;;;;;;9.48;5.20;;;;;;;5.96;67.30;100800.38;5160230;28;20436;-73
2023/04/07 01:55:46;;;;;;;11.13;4.78;;;;;;;5.64;69.95;100794.69;5159634;28;20034;-69
2023/04/07 01:58:17;;;;;;;12.52;5.60;;;;;;;5.48;70.82;100806.13;5158644;28;20030;-73
2023/04/07 02:00:49;;;;;;;11.88;5.15;;;;;;;5.35;70.57;100807.13;5160989;28;20398;-72
2023/04/07 02:03:26;;;;;;;9.88;5.30;;;;;;;5.25;71.74;100808.13;5169490;28;20107;-72
2023/04/07 02:06:05;;;;;;;10.30;5.55;;;;;;;5.08;73.15;100807.44;5160206;28;20110;-72
2023/04/07 02:08:41;;;;;;;13.15;5.90;;;;;;;5.03;72.19;100818.69;5163167;28;20106;-72
2023/04/07 02:11:12;;;;;;;11.75;5.45;;;;;;;5.03;71.90;100804.03;5160048;28;20154;-72
2023/04/07 02:13:44;;;;;;;12.30;6.30;;;;;;;4.89;73.41;100807.59;5158968;28;20449;-72
2023/04/07 02:16:15;;;;;;;9.48;5.30;;;;;;;4.80;72.98;100803.38;5158284;28;20666;-73
2023/04/07 02:18:46;;;;;;;12.13;5.85;;;;;;;4.74;74.94;100815.50;5141655;28;20026;-71
2023/04/07 02:21:18;;;;;;;13.05;6.10;;;;;;;4.57;75.50;100809.59;5145628;28;20034;-71
2023/04/07 02:23:48;;;;;;;11.93;5.78;;;;;;;4.53;75.38;100802.75;5169904;28;20303;-70
2023/04/07 02:26:18;;;;;;;10.40;5.68;;;;;;;4.48;75.46;100807.09;5167322;28;20032;-74
2023/04/07 02:28:49;;;;;;;12.05;5.85;;;;;;;4.45;75.54;100799.38;5162592;28;20046;-70
2023/04/07 02:31:19;;;;;;;11.63;6.25;;;;;;;4.35;75.98;100803.75;5160163;28;20030;-73
2023/04/07 02:33:49;;;;;;;11.45;5.95;;;;;;;4.42;75.62;100800.22;5165190;28;20034;-71
2023/04/07 02:36:20;;;;;;;11.18;6.72;;;;;;;4.44;76.06;100806.25;5162701;28;20100;-72
2023/04/07 02:38:50;;;;;;;11.30;6.25;;;;;;;4.35;76.78;100814.09;5158594;28;20037;-72
2023/04/07 02:41:21;;;;;;;8.80;5.60;;;;;;;4.31;77.04;100812.38;5161313;28;20495;-72
2023/04/07 02:43:52;;;;;;;10.20;5.63;;;;;;;4.18;76.91;100810.75;5147709;28;20125;-71
2023/04/07 02:46:22;;;;;;;12.45;6.00;;;;;;;4.16;76.53;100809.03;5148496;28;20053;-72
2023/04/07 02:48:52;;;;;;;10.73;6.47;;;;;;;4.15;76.43;100803.00;5161415;28;20025;-73
2023/04/07 02:51:22;;;;;;;9.95;5.63;;;;;;;4.19;76.43;100812.47;5161639;28;20033;-72
2023/04/07 02:53:53;;;;;;;11.45;5.70;;;;;;;4.39;74.66;100808.03;5162509;28;20046;-73
2023/04/07 02:56:23;;;;;;;10.88;5.40;;;;;;;4.56;73.03;100798.41;5167774;28;20034;-73
2023/04/07 02:58:54;;;;;;;10.73;5.40;;;;;;;4.73;72.08;100806.03;5151347;28;20036;-73
2023/04/07 03:01:24;;;;;;;10.13;5.40;;;;;;;4.77;71.56;100805.16;5162442;28;20034;-72
2023/04/07 03:03:54;;;;;;;11.43;5.53;;;;;;;4.80;71.25;100799.94;5162135;28;20018;-72
2023/04/07 03:06:25;;;;;;;11.65;5.55;;;;;;;4.94;70.29;100800.66;5159209;28;20031;-72
2023/04/07 03:08:56;;;;;;;9.90;5.68;;;;;;;5.05;69.33;100796.22;5162903;28;20129;-73
2023/04/07 03:11:26;;;;;;;9.18;4.65;;;;;;;4.99;70.32;100791.97;5158989;28;20536;-72
2023/04/07 03:13:57;;;;;;;8.80;5.00;;;;;;;4.93;70.95;100794.63;5145330;28;20118;-71
2023/04/07 03:16:27;;;;;;;11.05;5.82;;;;;;;4.82;71.95;100796.44;5162700;28;20022;-72
2023/04/07 03:18:57;;;;;;;10.38;5.70;;;;;;;4.69;72.61;100805.22;5162017;28;20030;-72
2023/04/07 03:21:28;;;;;;;12.77;5.68;;;;;;;4.53;74.74;100805.31;5164441;28;20078;-72
2023/04/07 03:23:58;;;;;;;11.30;6.47;;;;;;;4.34;76.17;100806.34;5161802;28;20526;-73
2023/04/07 03:26:28;;;;;;;10.00;6.30;;;;;;;4.17;77.31;100809.03;5160485;28;20125;-72
2023/04/07 03:28:59;;;;;;;13.52;6.43;;;;;;;3.94;78.14;100805.72;5158656;28;20030;-74
2023/04/07 03:31:29;;;;;;;11.13;5.80;;;;;;;3.86;77.52;100812.66;5168107;28;20499;-72
2023/04/07 03:34:00;;;;;;;10.98;5.57;;;;;;;3.98;75.50;100807.41;5166878;28;20030;-73
2023/04/07 03:36:33;;;;;;;8.15;4.82;;;;;;;4.24;73.64;100799.50;5145089;28;20434;-72
2023/04/07 03:39:03;;;;;;;10.30;4.82;;;;;;;4.41;73.17;100806.28;5145350;28;20491;-73
2023/04/07 03:41:34;;;;;;;11.10;5.03;;;;;;;4.46;72.06;100796.75;5162554;28;20406;-72
2023/04/07 03:44:04;;;;;;;10.60;5.57;;;;;;;4.45;72.89;100795.03;5144773;28;20022;-72
2023/04/07 03:46:35;;;;;;;10.90;5.53;;;;;;;4.51;73.06;100804.47;5164781;28;20054;-73
2023/04/07 03:49:06;;;;;;;11.02;5.53;;;;;;;4.37;73.90;100802.00;5161634;28;20100;-74
2023/04/07 03:51:36;;;;;;;9.35;4.75;;;;;;;4.45;72.36;100807.13;5145218;28;20085;-73
2023/04/07 03:54:06;;;;;;;12.35;5.43;;;;;;;4.39;73.35;100800.25;5165121;28;20325;-72
2023/04/07 03:56:37;;;;;;;10.45;5.00;;;;;;;4.38;73.14;100798.53;5152642;28;20029;-71
2023/04/07 03:59:07;;;;;;;11.32;5.18;;;;;;;4.44;72.62;100795.06;5163775;28;20049;-72
2023/04/07 04:01:37;;;;;;;10.20;5.78;;;;;;;4.42;72.86;100797.66;5161878;28;20136;-73
2023/04/07 04:04:08;;;;;;;10.20;5.05;;;;;;;4.35;72.95;100801.16;5161141;28;20022;-72
2023/04/07 04:06:38;;;;;;;8.55;4.65;;;;;;;4.37;71.56;100807.19;5151581;28;20092;-73
2023/04/07 04:09:08;;;;;;;8.07;4.40;;;;;;;4.48;71.46;100809.69;5164674;28;20022;-72
2023/04/07 04:11:39;;;;;;;8.27;4.32;;;;;;;4.44;71.40;100811.44;5164318;28;20022;-73
2023/04/07 04:14:09;;;;;;;9.43;5.07;;;;;;;4.60;70.51;100813.03;5147637;28;20026;-72
2023/04/07 04:16:40;;;;;;;8.75;4.22;;;;;;;4.62;70.40;100813.88;5163247;28;20026;-72
2023/04/07 04:19:10;;;;;;;9.88;5.15;;;;;;;4.53;71.35;100813.09;5162148;28;20061;-72
2023/04/07 04:21:40;;;;;;;12.23;5.13;;;;;;;4.35;73.67;100815.81;5145428;28;20514;-72
2023/04/07 04:24:11;;;;;;;10.52;5.35;;;;;;;4.33;74.16;100818.38;5164981;28;20088;-72
2023/04/07 04:26:41;;;;;;;10.25;5.22;;;;;;;4.18;74.72;100820.22;5162226;28;20712;-71
2023/04/07 04:29:11;;;;;;;11.45;5.60;;;;;;;3.98;75.51;100822.91;5159536;28;20536;-72
2023/04/07 04:31:41;;;;;;;11.23;5.80;;;;;;;3.92;77.12;100822.97;5166811;28;20034;-70
2023/04/07 04:34:12;;;;;;;13.38;6.10;;;;;;;3.77;76.82;100825.63;5167129;28;20503;-72
2023/04/07 04:36:42;;;;;;;11.32;6.13;;;;;;;3.61;77.51;100825.69;5169021;28;20036;-71
2023/04/07 04:39:13;;;;;;;9.38;5.35;;;;;;;3.65;78.23;100825.66;5162943;28;20057;-71
2023/04/07 04:41:44;;;;;;;10.95;5.70;;;;;;;3.56;79.34;100836.91;5165210;28;20484;-72
2023/04/07 04:44:14;;;;;;;13.45;5.50;;;;;;;3.43;79.21;100840.38;5164556;28;20037;-71
2023/04/07 04:46:45;;;;;;;12.80;6.32;;;;;;;3.50;79.44;100834.34;5145301;28;20065;-72
2023/04/07 04:49:17;;;;;;;11.27;5.88;;;;;;;3.52;79.97;100837.78;5145432;28;20034;-73
2023/04/07 04:51:48;;;;;;;11.55;6.28;;;;;;;3.48;79.97;100843.81;5165628;28;20149;-69
2023/04/07 04:54:18;;;;;;;12.80;6.38;;;;;;;3.41;80.40;100847.28;5161633;28;20337;-71
2023/04/07 04:56:48;;;;;;;12.85;6.35;;;;;;;3.37;80.92;100845.56;5164791;28;20587;-70
2023/04/07 04:59:19;;;;;;;12.32;6.70;;;;;;;3.29;80.33;100840.41;5161746;28;20022;-71
2023/04/07 05:01:49;;;;;;;10.68;6.22;;;;;;;3.29;81.31;100844.72;5144727;28;20066;-72
2023/04/07 05:04:19;;;;;;;15.73;6.63;;;;;;;3.28;81.91;100850.75;5166836;28;20109;-72
2023/04/07 05:06:50;;;;;;;12.30;6.63;;;;;;;3.18;81.66;100839.56;5167351;28;20034;-71
2023/04/07 05:09:20;;;;;;;12.55;6.53;;;;;;;3.19;82.12;100850.78;5162026;28;20056;-71
2023/04/07 05:11:50;;;;;;;12.60;6.93;;;;;;;3.25;82.82;100851.63;5162051;28;20512;-72
2023/04/07 05:14:21;;;;;;;13.20;6.78;;;;;;;3.30;82.18;100849.00;5162781;28;20434;-72
2023/04/07 05:16:53;;;;;;;12.57;6.43;;;;;;;3.30;81.85;100849.00;5161950;28;20037;-73
2023/04/07 05:19:23;;;;;;;11.32;6.65;;;;;;;3.33;82.25;100854.19;5161947;28;20026;-72
2023/04/07 05:21:53;;;;;;;12.98;6.95;;;;;;;3.41;83.37;100853.31;5162822;28;20026;-72
2023/04/07 05:24:27;;;;;;;12.02;6.97;;;;;;;3.46;83.36;100855.88;5163036;28;20046;-73
2023/04/07 05:26:57;;;;;;;12.82;6.68;;;;;;;3.49;83.41;100861.88;5163052;28;20026;-73
2023/04/07 05:29:28;;;;;;;12.48;6.70;;;;;;;3.31;83.13;100858.47;5163335;28;20032;-71
2023/04/07 05:32:00;;;;;;;12.25;6.53;;;;;;;3.35;82.77;100860.22;5162137;28;20097;-73
2023/04/07 05:34:30;;;;;;;11.75;6.35;;;;;;;3.61;83.36;100861.88;5168916;28;20022;-72
2023/04/07 05:37:00;;;;;;;12.32;6.20;;;;;;;3.60;83.44;100861.00;5165518;28;20514;-71
2023/04/07 05:39:31;;;;;;;11.02;6.57;;;;;;;3.62;82.52;100872.19;5160428;28;20030;-73
2023/04/07 05:42:01;;;;;;;12.38;6.07;;;;;;;3.71;81.52;100869.56;5144108;28;20057;-72
2023/04/07 05:44:32;;;;;;;11.10;5.82;;;;;;;4.00;80.78;100872.03;5161167;28;20032;-71
2023/04/07 05:47:07;;;;;;;14.32;5.88;;;;;;;4.29;78.62;100871.03;5166500;28;20212;-71
2023/04/07 05:49:44;;;;;;;10.00;5.53;;;;;;;4.43;78.16;100866.63;5165459;28;20045;-72
2023/04/07 05:52:14;;;;;;;10.60;5.35;;;;;;;4.57;76.97;100867.41;5160173;28;20053;-74
2023/04/07 05:54:45;;;;;;;13.18;5.93;;;;;;;4.74;76.74;100870.72;5163738;28;20022;-72
2023/04/07 05:57:15;;;;;;;10.60;5.55;;;;;;;4.89;76.49;100869.75;5160407;28;20084;-72
2023/04/07 05:59:46;;;;;;;12.93;7.28;;;;;;;5.11;75.46;100868.72;5167292;28;20025;-73
2023/04/07 06:02:16;;;;;;;11.45;5.20;;;;;;;5.34;74.25;100859.81;5165400;28;20802;-72
2023/04/07 06:04:46;;;;;;;8.20;4.85;;;;;;;5.61;73.18;100870.75;5162879;28;20297;-71
2023/04/07 06:07:17;;;;;;;9.88;5.10;;;;;;;5.59;73.23;100863.88;5163455;28;20528;-72
2023/04/07 06:09:47;;;;;;;9.38;5.10;;;;;;;5.86;73.50;100869.66;5152018;28;20036;-73
2023/04/07 06:12:17;;;;;;;8.88;4.68;;;;;;;5.96;72.93;100873.00;5148100;28;20085;-72
2023/04/07 06:14:54;;;;;;;9.07;5.13;;;;;;;5.99;71.84;100868.63;5145340;28;20026;-70
2023/04/07 06:17:25;;;;;;;9.32;4.97;;;;;;;6.09;72.61;100874.56;5162717;28;20113;-72
2023/04/07 06:19:55;;;;;;;8.73;5.00;;;;;;;6.27;71.50;100869.13;5163433;28;20133;-72
2023/04/07 06:22:25;;;;;;;8.63;4.70;;;;;;;6.34;71.62;100866.44;5166372;28;20022;-72
2023/04/07 06:24:56;;;;;;;9.88;4.55;;;;;;;6.69;71.58;100873.69;5166673;28;20022;-72
2023/04/07 06:27:26;;;;;;;8.18;4.72;;;;;;;6.86;71.71;100871.69;5163721;28;20038;-72
2023/04/07 06:29:56;;;;;;;6.85;4.40;;;;;;;7.05;70.46;100879.16;5147987;28;20690;-72
2023/04/07 06:32:27;;;;;;;11.82;5.00;;;;;;;7.13;70.84;100879.03;5165365;28;20036;-74
2023/04/07 06:34:57;;;;;;;8.65;5.15;;;;;;;7.54;69.83;100880.88;5147959;28;20389;-72
2023/04/07 06:37:28;;;;;;;8.65;4.30;;;;;;;7.67;68.87;100884.13;5168651;28;20076;-73
2023/04/07 06:39:58;;;;;;;7.07;4.38;;;;;;;7.94;67.89;100887.06;5161044;28;20029;-73
2023/04/07 06:42:28;;;;;;;9.40;4.18;;;;;;;8.11;63.97;100879.75;5167115;28;20037;-70
2023/04/07 06:44:58;;;;;;;6.97;3.97;;;;;;;8.39;65.39;100883.50;5167597;28;20342;-73
2023/04/07 06:47:29;;;;;;;7.55;3.90;;;;;;;8.61;63.85;100887.38;5164510;28;20397;-71
2023/04/07 06:50:00;;;;;;;10.32;3.72;;;;;;;8.74;60.91;100883.56;5163003;28;20030;-72
2023/04/07 06:52:30;;;;;;;7.30;3.95;;;;;;;8.78;59.34;100882.63;5164186;28;20061;-73
2023/04/07 06:55:00;;;;;;;9.35;4.10;;;;;;;8.95;59.77;100883.06;5164598;28;20060;-74
2023/04/07 06:57:31;;;;;;;7.05;3.78;;;;;;;8.83;60.21;100882.50;5148510;28;20025;-72
2023/04/07 07:00:01;;;;;;;7.15;3.75;;;;;;;8.86;60.63;100878.06;5160778;28;20087;-73
2023/04/07 07:02:31;;;;;;;6.28;3.67;;;;;;;9.55;58.86;100881.50;5164635;28;20430;-70
2023/04/07 07:05:03;;;;;;;6.65;3.42;;;;;;;11.54;54.15;100872.69;5167367;28;20501;-70
2023/04/07 07:07:33;;;;;;;7.93;3.95;;;;;;;12.89;53.02;100868.44;5168743;28;20080;-71
2023/04/07 07:10:05;;;;;;;6.57;3.55;;;;;;;13.63;49.98;100859.16;5162928;28;20053;-72
2023/04/07 07:12:36;;;;;;;6.78;3.25;;;;;;;14.29;49.42;100856.16;5167112;28;20026;-72
2023/04/07 07:15:06;;;;;;;6.35;3.08;;;;;;;13.66;49.34;100866.03;5149858;28;20026;-71
2023/04/07 07:17:37;;;;;;;5.35;3.42;;;;;;;14.03;48.08;100864.38;5161720;28;20037;-71
2023/04/07 07:20:08;;;;;;;5.45;3.45;;;;;;;15.31;47.29;100862.56;5146767;28;20134;-71
2023/04/07 07:22:38;;;;;;;6.25;3.50;;;;;;;15.12;47.93;100871.41;5164132;28;20631;-72
2023/04/07 07:25:08;;;;;;;5.85;3.38;;;;;;;15.53;46.10;100868.44;5162887;28;20492;-72
2023/04/07 07:27:39;;;;;;;4.93;3.08;;;;;;;16.27;45.66;100862.72;5162230;28;20077;-73
2023/04/07 07:30:10;;;;;;;5.97;3.28;;;;;;;16.34;45.77;100865.88;5160109;28;20029;-71
2023/04/07 07:32:40;;;;;;;7.15;3.38;;;;;;;15.96;46.44;100875.84;5145439;28;20120;-72
2023/04/07 07:35:10;;;;;;;7.03;3.45;;;;;;;15.79;47.20;100867.97;5143143;28;20113;-72
2023/04/07 07:37:41;;;;;;;5.38;3.15;;;;;;;15.42;45.60;100876.06;5145319;28;20029;-72
2023/04/07 07:40:12;;;;;;;5.88;3.10;;;;;;;14.53;46.51;100888.34;5160577;28;20021;-72
2023/04/07 07:42:42;;;;;;;6.63;3.33;;;;;;;14.68;46.14;100887.66;5148487;28;20024;-72
2023/04/07 07:45:12;;;;;;;5.68;3.20;;;;;;;15.67;45.34;100881.78;5146770;28;20018;-72
2023/04/07 07:47:43;;;;;;;5.70;3.20;;;;;;;16.64;46.07;100878.28;5158182;28;20028;-72
2023/04/07 07:50:13;;;;;;;6.75;3.67;;;;;;;16.00;44.41;100890.56;5141132;28;20026;-70
2023/04/07 07:52:43;;;;;;;5.95;3.33;;;;;;;16.25;44.17;100890.94;5146334;28;20026;-72
2023/04/07 07:55:14;;;;;;;13.05;4.00;;;;;;;16.77;45.28;100889.88;5158616;28;20033;-72
2023/04/07 07:57:44;;;;;;;6.55;3.67;;;;;;;16.60;44.44;100895.22;5150587;28;20545;-75
2023/04/07 08:00:14;;;;;;;8.25;3.50;;;;;;;17.32;44.78;100897.19;5142808;28;20033;-72
2023/04/07 08:02:45;;;;;;;6.53;3.47;;;;;;;17.15;44.47;100902.59;5170127;28;20022;-73
2023/04/07 08:05:15;;;;;;;5.82;3.55;;;;;;;17.43;42.64;100896.59;5166625;28;20436;-72
2023/04/07 08:07:45;;;;;;;6.13;3.40;;;;;;;16.50;42.57;100903.69;5149489;28;20439;-73
2023/04/07 08:10:16;;;;;;;7.40;3.58;;;;;;;16.96;44.56;100903.75;5158444;28;20072;-72
2023/04/07 08:12:46;;;;;;;7.45;3.50;;;;;;;16.72;43.04;100902.44;5160560;28;20026;-72
2023/04/07 08:15:16;;;;;;;5.93;3.55;;;;;;;16.64;45.17;100912.59;5162114;28;20096;-72
2023/04/07 08:17:47;;;;;;;6.22;3.10;;;;;;;17.04;43.39;100906.78;5161358;28;20557;-72
2023/04/07 08:20:17;;;;;;;8.82;4.15;;;;;;;16.82;43.27;100909.78;5160402;28;20062;-72
2023/04/07 08:22:47;;;;;;;7.47;3.83;;;;;;;16.95;43.90;100915.25;5157404;28;20084;-71
2023/04/07 08:25:18;;;;;;;6.40;3.47;;;;;;;17.57;43.31;100912.50;5161393;28;20034;-72
2023/04/07 08:27:48;;;;;;;6.22;3.78;;;;;;;18.16;42.75;100899.19;5140426;28;20018;-71
2023/04/07 08:30:20;;;;;;;8.23;4.50;;;;;;;18.22;43.51;100909.41;5145138;28;20037;-72
2023/04/07 08:32:50;;;;;;;6.65;3.67;;;;;;;18.50;42.97;100904.13;5160713;28;20240;-72
2023/04/07 08:35:21;;;;;;;7.60;3.75;;;;;;;18.66;44.09;100910.16;5160081;28;20206;-73
2023/04/07 08:37:51;;;;;;;6.72;3.78;;;;;;;18.92;43.53;100908.38;5158287;28;20491;-72
2023/04/07 08:40:22;;;;;;;6.40;3.73;;;;;;;18.73;42.22;100906.16;5157684;28;20022;-74
2023/04/07 08:42:52;;;;;;;6.60;3.60;;;;;;;17.39;43.61;100916.22;5157253;28;20281;-72
2023/04/07 08:45:24;;;;;;;8.25;3.78;;;;;;;17.30;45.93;100912.28;5157680;28;20672;-72
2023/04/07 08:47:56;;;;;;;6.78;3.83;;;;;;;17.55;44.53;100917.91;5141116;28;20400;-72
2023/04/07 08:50:27;;;;;;;8.38;3.58;;;;;;;17.76;43.21;100913.09;5160370;28;20454;-72
2023/04/07 08:53:00;;;;;;;7.00;3.80;;;;;;;17.08;43.49;100926.78;5158053;28;21036;-72
2023/04/07 08:55:31;;;;;;;6.53;3.58;;;;;;;18.08;43.18;100915.53;5157194;28;20098;-71
2023/04/07 08:58:03;;;;;;;8.23;4.13;;;;;;;17.94;42.84;100914.66;5157239;28;20420;-71
2023/04/07 09:00:33;;;;;;;7.13;3.50;;;;;;;17.24;44.07;100927.63;5160747;28;20018;-72
2023/04/07 09:03:04;;;;;;;5.72;3.45;;;;;;;17.01;44.02;100923.63;5159818;28;20033;-72
2023/04/07 09:05:35;;;;;;;9.00;3.97;;;;;;;17.27;43.34;100922.16;5167028;28;20033;-72
2023/04/07 09:08:05;;;;;;;7.20;3.53;;;;;;;16.97;44.97;100924.75;5146920;28;20034;-72
2023/04/07 09:10:36;;;;;;;7.45;3.88;;;;;;;16.99;45.39;100922.88;5141562;28;20022;-72
2023/04/07 09:13:06;;;;;;;10.18;3.45;;;;;;;17.57;43.67;100928.34;5139910;28;20110;-74
2023/04/07 09:15:37;;;;;;;7.10;3.45;;;;;;;16.64;43.82;100931.06;5139682;28;20509;-73
2023/04/07 09:18:07;;;;;;;7.03;4.32;;;;;;;16.38;44.12;100934.25;5160906;28;20046;-73
2023/04/07 09:20:56;;;;;;;6.45;3.80;;;;;;;16.06;45.43;100935.06;5156908;28;20408;-72
2023/04/07 09:23:29;;;;;;;6.97;3.63;;;;;;;16.07;45.57;100942.03;5160183;28;20674;-72
2023/04/07 09:26:17;;;;;;;7.18;3.78;;;;;;;16.43;47.03;100948.06;5141906;28;20062;-73
2023/04/07 09:28:51;;;;;;;8.68;4.10;;;;;;;15.75;47.47;100942.88;5141469;28;20029;-73
2023/04/07 09:31:25;;;;;;;8.00;3.90;;;;;;;15.29;47.60;100947.84;5139696;28;20088;-72
2023/04/07 09:33:55;;;;;;;10.52;4.00;;;;;;;12.87;49.71;100951.59;5148723;28;20022;-71
2023/04/07 09:36:28;;;;;;;8.50;4.30;;;;;;;13.48;50.66;100949.09;5168603;28;20038;-72
2023/04/07 09:39:07;;;;;;;7.35;4.22;;;;;;;13.46;49.31;100944.81;5166678;28;20042;-72
2023/04/07 09:41:37;;;;;;;7.70;4.22;;;;;;;13.19;48.92;100946.81;5167002;28;20388;-72
2023/04/07 09:44:09;;;;;;;9.43;3.95;;;;;;;12.90;49.43;100954.09;5161627;28;20088;-72
2023/04/07 09:46:49;;;;;;;7.00;3.70;;;;;;;12.60;47.77;100959.66;5148204;28;20025;-71
2023/04/07 09:49:20;;;;;;;7.20;3.65;;;;;;;12.89;48.21;100957.63;5143267;28;20563;-72
2023/04/07 09:51:58;;;;;;;7.63;3.92;;;;;;;12.87;48.76;100948.97;5170393;28;20104;-71
2023/04/07 09:54:37;;;;;;;7.93;4.18;;;;;;;12.65;49.29;100953.31;5146830;28;20034;-72
2023/04/07 09:57:09;;;;;;;7.65;4.07;;;;;;;12.77;49.90;100947.59;5164670;28;21363;-69
2023/04/07 09:59:44;;;;;;;10.00;4.72;;;;;;;12.99;51.38;100949.38;5164306;28;20104;-72
2023/04/07 10:02:14;;;;;;;9.07;4.72;;;;;;;13.26;49.21;100955.28;5160683;28;20034;-72
2023/04/07 10:04:45;;;;;;;7.53;3.88;;;;;;;13.00;49.64;100947.59;5166099;28;20030;-72
2023/04/07 10:07:16;;;;;;;9.75;4.70;;;;;;;12.85;49.84;100944.69;5161900;28;20210;-71
2023/04/07 10:09:46;;;;;;;9.10;4.28;;;;;;;12.57;50.67;100952.75;5155332;28;20026;-72
2023/04/07 10:12:17;;;;;;;8.65;4.20;;;;;;;12.86;51.03;100956.88;5160444;28;20178;-71
2023/04/07 10:14:47;;;;;;;8.75;4.28;;;;;;;12.42;51.12;100955.06;5161972;28;20106;-72
2023/04/07 10:17:19;;;;;;;13.32;4.60;;;;;;;12.78;51.07;100941.44;5161554;28;20036;-72
2023/04/07 10:19:50;;;;;;;9.18;4.68;;;;;;;12.54;50.92;100955.50;5146786;28;20025;-73
2023/04/07 10:22:21;;;;;;;7.57;4.20;;;;;;;12.36;52.24;100956.19;5164100;28;20523;-72
2023/04/07 10:25:09;;;;;;;10.82;4.70;;;;;;;12.05;52.75;100955.56;5148135;28;20514;-72
2023/04/07 10:27:59;;;;;;;10.50;4.63;;;;;;;11.81;54.06;100953.78;5163531;28;20034;-72
2023/04/07 10:30:31;;;;;;;12.38;5.13;;;;;;;12.27;53.11;100955.66;5162444;28;20103;-71
2023/04/07 10:33:01;;;;;;;7.00;4.18;;;;;;;11.90;52.62;100963.97;5162290;28;20522;-72
2023/04/07 10:36:01;;;;;;;11.00;4.57;;;;;;;11.71;52.69;100949.81;5164572;28;20029;-72
2023/04/07 10:38:32;;;;;;;17.85;4.97;;;;;;;11.69;53.24;100955.97;5164742;28;20049;-72
2023/04/07 10:41:34;;;;;;;21.63;5.22;;;;;;;11.57;52.83;100949.41;5163684;28;20022;-73
2023/04/07 10:44:06;;;;;;;11.75;3.78;;;;;;;11.95;53.53;100956.78;5161680;28;20026;-71
2023/04/07 10:46:59;;;;;;;9.90;4.22;;;;;;;12.07;53.10;100948.50;5166155;28;20476;-73
2023/04/07 10:49:31;;;;;;;8.50;3.92;;;;;;;11.96;51.02;100940.16;5159729;28;20108;-71
2023/04/07 10:52:10;;;;;;;11.90;4.53;;;;;;;11.68;52.38;100947.28;5145364;28;20042;-73
2023/04/07 10:54:41;;;;;;;11.80;4.57;;;;;;;11.51;52.88;100954.81;5143247;28;20026;-73
2023/04/07 10:57:13;;;;;;;7.75;4.13;;;;;;;11.78;51.46;100955.69;5162933;28;20037;-72
2023/04/07 11:00:09;;;;;;;8.25;4.35;;;;;;;11.69;52.21;100949.00;5164218;28;20027;-74
2023/04/07 11:02:39;;;;;;;8.60;4.55;;;;;;;12.03;52.81;100948.66;5164719;28;20117;-73
2023/04/07 11:05:20;;;;;;;7.57;3.50;;;;;;;11.72;51.16;100943.66;5159651;28;20043;-72
2023/04/07 11:07:54;;;;;;;7.07;3.40;;;;;;;11.88;52.98;100950.06;5163830;28;20037;-73
2023/04/07 11:10:24;;;;;;;6.65;3.30;;;;;;;11.87;51.82;100945.75;5159101;28;20030;-72
2023/04/07 11:13:02;;;;;;;7.88;3.47;;;;;;;11.77;52.31;100944.34;5162444;28;20400;-72
2023/04/07 11:15:36;;;;;;;6.43;3.13;;;;;;;11.84;52.63;100950.22;5161705;28;20023;-73
2023/04/07 11:18:22;;;;;;;7.00;3.15;;;;;;;11.99;52.01;100940.06;5161480;28;20399;-72
2023/04/07 11:20:54;;;;;;;6.37;3.10;;;;;;;11.82;51.96;100941.56;5147537;28;20065;-72
2023/04/07 11:23:26;;;;;;;7.57;3.05;;;;;;;11.61;51.55;100948.38;5162755;28;20403;-71
2023/04/07 11:26:00;;;;;;;6.78;3.47;;;;;;;12.11;51.97;100952.72;5162058;28;20030;-72
2023/04/07 11:28:31;;;;;;;5.78;3.15;;;;;;;12.09;51.92;100945.84;5162611;28;20084;-71
2023/04/07 11:31:02;;;;;;;9.07;3.40;;;;;;;12.38;51.30;100949.13;5159166;28;20030;-72
2023/04/07 11:33:35;;;;;;;6.03;3.10;;;;;;;12.04;49.96;100947.75;5163380;28;20054;-72
2023/04/07 11:36:06;;;;;;;7.18;3.45;;;;;;;12.23;51.46;100949.69;5158157;28;20032;-72
2023/04/07 11:38:37;;;;;;;7.78;3.42;;;;;;;11.86;51.95;100949.28;5158564;28;20882;-72
2023/04/07 11:41:12;;;;;;;8.90;3.40;;;;;;;11.99;51.47;100950.53;5160124;28;20444;-72
2023/04/07 11:43:43;;;;;;;7.25;3.97;;;;;;;12.13;50.96;100950.91;5160059;28;20042;-70
2023/04/07 11:46:15;;;;;;;6.25;3.10;;;;;;;12.20;52.24;100949.78;5147351;28;20025;-71
2023/04/07 11:48:46;;;;;;;7.47;3.22;;;;;;;12.25;50.95;100939.13;5140026;28;20222;-74